createdAt,value
2022-10-06T00:19:37.857Z,14
2022-10-06T00:29:37.956Z,14.1
2022-10-06T00:39:38.341Z,14.1
2022-10-06T00:49:39.327Z,14.1
2022-10-06T00:59:39.418Z,13.9
2022-10-06T01:09:39.815Z,13.8
2022-10-06T01:19:40.599Z,13.8
2022-10-06T01:29:41.356Z,13.7
2022-10-06T01:39:42.183Z,13.6
2022-10-06T01:49:42.656Z,13.6
2022-10-06T01:59:42.880Z,13.5
2022-10-06T02:09:43.113Z,13.4
2022-10-06T02:29:44.861Z,13.4
2022-10-06T02:49:46.293Z,13.3
2022-10-06T02:59:47.149Z,13.3
2022-10-06T03:09:47.469Z,13.3
2022-10-06T03:19:48.030Z,13.3
2022-10-06T03:29:48.811Z,13.2
2022-10-06T03:39:49.425Z,13.1
2022-10-06T03:59:51.106Z,12.9
2022-10-06T04:09:51.629Z,12.7
2022-10-06T04:19:52.418Z,12.7
2022-10-06T04:29:52.933Z,12.6
2022-10-06T04:39:53.457Z,12.5
2022-10-06T04:49:54.183Z,12.4
2022-10-06T04:59:54.592Z,12.3
2022-10-06T05:09:54.661Z,12.2
2022-10-06T05:19:55.362Z,12.2
2022-10-06T05:29:56.142Z,12.2
2022-10-06T05:39:56.402Z,12.1
2022-10-06T05:49:57.354Z,12
2022-10-06T05:59:57.398Z,12
2022-10-06T06:09:57.598Z,12
2022-10-06T06:19:58.188Z,12
2022-10-06T06:29:58.820Z,12
2022-10-06T06:50:00.285Z,12.2
2022-10-06T07:00:00.802Z,12.5
2022-10-06T07:10:01.058Z,12.5
2022-10-06T07:20:01.866Z,12.6
2022-10-06T07:30:02.498Z,12.7
2022-10-06T07:40:03.091Z,12.9
2022-10-06T07:50:03.880Z,13
2022-10-06T08:10:48.843Z,13.5
2022-10-06T08:20:11.511Z,13.7
2022-10-06T08:30:11.765Z,13.8
2022-10-06T08:40:12.175Z,14
2022-10-06T08:50:13.009Z,14.1
2022-10-06T09:00:16.779Z,14.4
2022-10-06T10:00:17.208Z,15.5
2022-10-06T10:10:17.702Z,15.9
2022-10-06T10:20:18.433Z,15.7
2022-10-06T10:30:18.841Z,15.9
2022-10-06T10:40:19.397Z,16.3
2022-10-06T10:50:20.036Z,16.2
2022-10-06T11:00:20.962Z,16.4
2022-10-06T11:10:21.726Z,17
2022-10-06T11:20:21.803Z,17.7
2022-10-06T11:30:22.694Z,17.9
2022-10-06T11:40:23.829Z,18.2
2022-10-06T11:50:24.431Z,17.9
2022-10-06T12:00:25.353Z,17.8
2022-10-06T12:20:26.448Z,18.2
2022-10-06T12:30:26.929Z,18.3
2022-10-06T12:40:27.563Z,18
2022-10-06T12:50:28.275Z,18.2
2022-10-06T13:00:28.838Z,18.3
2022-10-06T13:10:29.019Z,17.5
2022-10-06T13:20:29.431Z,17.7
2022-10-06T13:30:31.812Z,17.9
2022-10-06T13:30:52.265Z,17.9
2022-10-06T13:40:45.173Z,17.8
2022-10-06T13:50:36.842Z,17.7
2022-10-06T14:00:37.339Z,17.8
2022-10-06T14:10:38.201Z,17.7
2022-10-06T14:20:38.698Z,17.5
2022-10-06T14:30:39.719Z,17.5
2022-10-06T14:40:40.544Z,17.5
2022-10-06T15:00:42.283Z,17.5
2022-10-06T15:10:43.188Z,17.5
2022-10-06T15:20:43.362Z,17.4
2022-10-06T15:30:44.132Z,17.2
2022-10-06T16:00:45.744Z,16.8
2022-10-06T16:10:46.372Z,16.7
2022-10-06T16:30:46.472Z,16.3
2022-10-06T16:40:46.551Z,16.1
2022-10-06T16:50:47.393Z,15.8
2022-10-06T17:00:47.632Z,15.6
2022-10-06T17:20:48.420Z,15.2
2022-10-06T17:30:49.326Z,15
2022-10-06T17:40:49.858Z,14.9
2022-10-06T17:50:50.756Z,14.5
2022-10-06T18:00:51.550Z,14.1
2022-10-06T18:10:53.948Z,13.9
2022-10-06T18:20:53.072Z,13.9
2022-10-06T18:30:53.237Z,13.7
2022-10-06T18:40:53.948Z,13.5
2022-10-06T18:50:54.223Z,13.2
2022-10-06T19:00:54.735Z,13
2022-10-06T19:20:55.597Z,12.7
2022-10-06T19:30:56.447Z,12.6
2022-10-06T19:40:56.753Z,12.3
2022-10-06T19:50:57.774Z,12.1
2022-10-06T20:00:58.144Z,11.8
2022-10-06T20:10:58.305Z,11.7
2022-10-06T20:20:59.099Z,11.7
2022-10-06T20:30:59.650Z,11.2
2022-10-06T20:51:01.292Z,10.9
2022-10-06T21:11:02.614Z,10.7
2022-10-06T21:21:03.522Z,10.5
2022-10-06T21:31:04.335Z,10.5
2022-10-06T21:41:04.807Z,10.4
2022-10-06T21:51:05.024Z,10.4
2022-10-06T22:01:05.847Z,10.3
2022-10-06T22:11:06.542Z,10.1
2022-10-06T22:21:07.081Z,10.1
2022-10-06T22:31:07.618Z,10.1
2022-10-06T22:41:07.898Z,10.1
2022-10-06T22:51:08.921Z,10.1
2022-10-06T23:01:09.793Z,10.1
2022-10-06T23:11:10.733Z,10.4
2022-10-06T23:21:11.119Z,10.5
2022-10-06T23:31:11.380Z,10.5
2022-10-06T23:41:11.450Z,10.4
2022-10-06T23:51:12.124Z,10.4
